Date,TemperatureHighF,TemperatureAvgF,TemperatureLowF,DewpointHighF,DewpointAvgF,DewpointLowF,HumidityHigh,HumidityAvg,HumidityLow,PressureMaxIn,PressureMinIn,WindSpeedMaxMPH,WindSpeedAvgMPH,GustSpeedMaxMPH,PrecipitationSumIn
2013-1-1,36.0,23.5,11.0,19.0,5.9,-1.0,81,52,23,0.00,40.00,2,0,12,0.01
2013-1-2,47.0,27.9,17.0,7.0,3.4,-4.0,62,38,12,0.00,40.00,4,0,12,0.00
2013-1-3,47.0,29.5,16.0,6.0,0.1,-20.0,56,33,8,0.00,40.00,3,1,12,0.00
2013-1-4,52.0,26.0,12.0,11.0,3.8,-18.0,69,47,5,0.00,40.00,5,1,9,0.00
2013-1-5,53.0,31.5,18.0,14.0,7.5,-12.0,71,44,10,0.00,40.00,4,1,9,0.00
2013-1-6,34.0,29.2,25.0,28.0,19.1,4.0,98,70,31,0.00,40.00,8,2,21,0.00
2013-1-7,41.0,30.0,21.0,24.0,13.7,1.0,94,58,21,0.00,40.00,8,4,26,0.00
2013-1-8,55.0,39.5,27.0,28.0,21.0,3.0,90,53,16,0.00,40.00,6,2,27,0.07
2013-1-9,57.0,38.2,26.0,33.0,24.1,18.0,95,62,24,0.00,40.00,4,1,18,0.02
2013-1-10,39.0,25.6,15.0,29.0,19.1,8.0,100,82,29,0.00,40.00,11,4,28,0.00
2013-1-11,27.0,16.5,5.0,15.0,11.1,2.0,98,80,49,0.00,40.00,5,1,15,0.00
2013-1-12,32.0,11.7,0.0,11.0,1.5,-13.0,96,71,13,0.00,40.00,5,1,14,0.05
2013-1-13,32.0,12.2,-2.0,9.0,0.9,-5.0,96,67,23,0.00,40.00,5,1,12,0.02
2013-1-14,26.0,15.0,0.0,3.0,-8.0,-19.0,81,40,13,0.00,40.00,11,4,37,0.00
2013-1-15,37.0,30.2,24.0,20.0,14.5,5.0,64,52,39,0.00,40.00,13,4,37,0.01
2013-1-16,52.0,38.4,30.0,21.0,13.0,5.0,67,38,20,0.00,40.00,13,2,25,0.02
2013-1-17,56.0,33.7,22.0,15.0,8.6,-3.0,71,40,10,0.00,40.00,4,1,10,0.01
2013-1-18,58.0,31.2,19.0,21.0,13.1,3.0,86,56,12,0.00,40.00,4,1,12,0.00
2013-1-19,58.0,29.4,16.0,11.0,5.9,-14.0,74,47,5,0.00,40.00,4,1,11,0.00
2013-1-20,56.0,29.5,16.0,15.0,5.8,-8.0,71,46,7,0.00,40.00,4,1,10,0.00
2013-1-21,57.0,32.7,21.0,9.0,3.1,-18.0,57,35,4,0.00,40.00,4,1,13,0.00
2013-1-22,62.0,34.8,18.0,21.0,9.1,-1.0,66,42,8,0.00,40.00,5,2,11,0.00
2013-1-23,55.0,43.5,34.0,34.0,26.7,21.0,77,53,32,0.00,40.00,7,2,15,0.00
2013-1-24,51.0,41.0,33.0,45.0,38.0,32.0,100,90,67,0.00,40.00,2,0,14,0.17
2013-1-25,46.0,39.1,35.0,44.0,38.6,35.0,100,98,86,0.00,40.00,0,0,6,0.27
2013-1-26,48.0,38.6,33.0,44.0,37.6,33.0,100,96,81,0.00,40.00,3,1,9,0.24
2013-1-27,38.0,32.4,21.0,35.0,28.4,20.0,99,86,67,0.00,40.00,8,4,20,0.01
2013-1-28,34.0,21.3,12.0,22.0,17.9,11.0,98,88,52,0.00,40.00,3,1,13,0.03
2013-1-29,53.0,33.5,12.0,29.0,19.1,11.0,97,62,28,0.00,40.00,4,1,17,0.08
2013-1-30,57.0,41.2,32.0,24.0,20.7,16.0,73,47,22,0.00,40.00,4,1,15,0.01
2013-1-31,57.0,39.8,26.0,28.0,22.9,17.0,87,57,21,0.00,40.00,5,2,11,0.00
2013-2-1,59.0,37.0,24.0,32.0,23.3,11.0,92,67,15,0.00,40.00,5,2,9,0.00
2013-2-2,59.0,40.9,28.0,31.0,25.0,10.0,90,60,14,0.00,40.00,4,1,8,0.00
2013-2-3,52.0,39.8,28.0,39.0,31.8,20.0,100,77,35,0.00,40.00,2,0,14,0.13
2013-2-4,57.0,36.1,26.0,29.0,23.1,15.0,98,67,20,0.00,40.00,5,1,13,0.05
2013-2-5,56.0,36.2,23.0,29.0,18.7,7.0,77,57,14,0.00,40.00,5,1,12,0.00
2013-2-6,55.0,34.0,21.0,25.0,11.2,-18.0,81,47,5,0.00,40.00,4,1,13,0.00
2013-2-7,53.0,32.9,19.0,26.0,9.6,-2.0,76,45,10,0.00,40.00,10,3,21,0.00
2013-2-8,28.0,23.1,19.0,28.0,21.9,18.0,100,95,90,0.00,40.00,10,4,25,0.00
2013-2-9,35.0,21.9,10.0,23.0,17.3,8.0,99,85,51,0.00,40.00,5,1,11,0.04
2013-2-10,40.0,20.0,5.0,25.0,12.2,3.0,98,77,28,0.00,40.00,3,1,10,0.09
2013-2-11,34.0,23.9,19.0,22.0,7.5,-6.0,97,56,20,0.00,40.00,7,2,24,0.01
2013-2-12,46.0,23.7,12.0,13.0,7.2,1.0,78,52,19,0.00,40.00,5,2,16,0.08
2013-2-13,54.0,34.7,26.0,23.0,15.6,7.0,84,50,19,0.00,40.00,5,1,16,0.17
2013-2-14,51.0,33.6,21.0,26.0,19.7,13.0,97,63,25,0.00,40.00,4,1,16,0.01
2013-2-15,53.0,40.1,32.0,21.0,8.9,-10.0,60,31,9,0.00,40.00,5,2,18,0.00
2013-2-16,58.0,37.9,25.0,22.0,7.3,-12.0,67,34,6,0.00,40.00,5,1,11,0.00
2013-2-17,51.0,34.9,23.0,21.0,13.1,4.0,76,47,16,0.00,40.00,6,2,16,0.00
2013-2-18,53.0,31.4,18.0,22.0,13.7,1.0,75,54,13,0.00,40.00,6,2,14,0.00
2013-2-19,40.0,27.2,22.0,27.0,14.6,-11.0,99,65,11,0.00,40.00,8,4,20,0.00
2013-2-20,38.0,21.9,13.0,29.0,19.1,10.0,98,90,51,0.00,40.00,5,1,19,0.02
2013-2-21,37.0,18.7,7.0,19.0,10.5,6.0,95,73,37,0.00,40.00,5,1,13,0.01
2013-2-22,46.0,25.0,9.0,20.0,10.7,4.0,90,63,18,0.00,40.00,5,2,11,0.27
2013-2-23,50.0,32.6,18.0,23.0,16.3,1.0,94,60,13,0.00,40.00,5,2,21,0.02
2013-2-24,35.0,26.8,18.0,14.0,-5.0,-13.0,62,26,13,0.00,40.00,9,4,34,0.01
2013-2-25,50.0,30.8,16.0,19.0,7.4,0.0,68,42,13,0.00,40.00,6,2,15,0.00
2013-2-26,50.0,29.8,20.0,15.0,9.0,-5.0,75,45,13,0.00,40.00,4,1,11,0.00
2013-2-27,46.0,31.2,19.0,11.0,3.2,-9.0,68,36,12,0.00,40.00,6,1,18,0.00
2013-2-28,54.0,35.2,20.0,18.0,9.5,3.0,67,40,14,0.00,40.00,5,1,14,0.00
2013-3-1,59.0,41.3,28.0,20.0,13.7,7.0,69,38,13,0.00,40.00,4,2,14,0.00
2013-3-2,62.0,41.4,24.0,26.0,16.7,7.0,76,44,12,0.00,40.00,5,1,12,0.00
2013-3-3,52.0,42.2,33.0,32.0,22.2,11.0,87,47,24,0.00,40.00,10,5,25,0.00
2013-3-4,58.0,38.9,26.0,32.0,28.3,10.0,97,71,16,0.00,40.00,7,2,14,0.00
2013-3-5,55.0,37.9,25.0,35.0,24.6,16.0,91,63,24,0.00,40.00,7,2,16,0.00
2013-3-6,50.0,37.3,29.0,29.0,21.9,7.0,91,59,18,0.00,40.00,8,2,16,0.00
2013-3-7,43.0,32.4,26.0,32.0,28.2,24.0,100,86,63,0.00,40.00,8,2,16,0.00
2013-3-8,32.0,28.0,25.0,29.0,25.0,20.0,100,89,62,0.00,40.00,8,3,24,0.00
2013-3-9,47.0,32.4,23.0,29.0,23.9,16.0,99,74,41,0.00,40.00,6,2,28,0.39
2013-3-10,53.0,38.7,26.0,19.0,12.0,-4.0,69,38,10,0.00,40.00,6,2,25,0.01
2013-3-11,64.0,40.4,22.0,22.0,13.1,1.0,79,43,10,0.00,40.00,5,2,16,0.00
2013-3-12,66.0,43.6,27.0,27.0,19.5,12.0,84,49,13,0.00,40.00,5,2,12,0.00
2013-3-13,71.0,45.4,29.0,33.0,21.1,14.0,84,51,11,0.00,40.00,4,2,14,0.00
2013-3-14,73.0,47.9,31.0,33.0,23.4,16.0,79,48,12,0.00,40.00,6,1,11,0.00
2013-3-15,69.0,48.8,33.0,34.0,23.2,8.0,81,47,9,0.00,40.00,6,2,12,0.00
2013-3-16,67.0,49.6,33.0,30.0,18.4,9.0,69,34,11,0.00,40.00,5,2,14,0.00
2013-3-17,66.0,45.5,33.0,24.0,12.6,-37.0,55,30,1,0.00,40.00,7,2,16,0.00
2013-3-18,62.0,44.7,28.0,21.0,14.1,6.0,56,33,12,0.00,40.00,7,2,14,0.00
2013-3-19,63.0,46.4,36.0,34.0,23.3,15.0,71,43,22,0.00,40.00,8,2,15,0.00
2013-3-20,57.0,45.8,35.0,35.0,29.9,23.0,78,57,28,0.00,40.00,6,3,14,0.00
2013-3-21,65.0,42.3,33.0,34.0,21.6,-4.0,81,51,7,0.00,40.00,6,1,14,0.00
2013-3-22,61.0,44.5,29.0,28.0,7.4,-6.0,71,26,7,0.00,40.00,7,3,18,0.00
2013-3-23,61.0,40.0,23.0,27.0,12.0,2.0,70,36,11,0.00,40.00,6,2,15,0.00
2013-3-24,61.0,43.0,29.0,24.0,15.9,8.0,65,39,13,0.00,40.00,6,3,13,0.00
2013-3-25,63.0,43.7,27.0,26.0,16.1,7.0,68,39,12,0.00,40.00,6,2,16,0.00
2013-3-26,60.0,44.9,31.0,32.0,17.9,-4.0,72,42,8,0.00,40.00,6,2,13,0.00
2013-3-27,54.0,42.9,33.0,32.0,28.0,24.0,79,58,37,0.00,40.00,10,3,21,0.00
2013-3-28,59.0,49.8,35.0,38.0,29.9,26.0,78,50,29,0.00,40.00,8,4,16,0.00
2013-3-29,64.0,45.3,28.0,35.0,28.8,20.0,94,61,18,0.00,40.00,6,2,14,0.00
2013-3-30,61.0,47.5,36.0,37.0,28.4,-99.9,83,54,24,0.00,40.00,5,1,11,0.00
2013-3-31,54.0,42.4,33.0,38.0,32.2,28.0,92,70,36,0.00,40.00,7,2,16,0.00
2013-4-1,55.0,38.7,27.0,34.0,25.4,4.0,95,65,15,0.00,40.00,8,2,17,0.00
2013-4-2,63.0,41.3,24.0,31.0,23.1,16.0,96,58,18,0.00,40.00,5,1,11,0.00
2013-4-3,65.0,45.1,28.0,36.0,25.7,21.0,83,53,20,0.00,40.00,6,2,13,0.00
2013-4-4,63.0,46.0,33.0,38.0,25.7,11.0,77,54,13,0.00,40.00,6,3,14,0.00
2013-4-5,63.0,45.4,33.0,41.0,29.9,11.0,99,63,13,0.00,40.00,6,2,15,0.00
2013-4-6,65.0,46.1,31.0,31.0,23.3,17.0,78,45,16,0.00,40.00,6,2,15,0.00
2013-4-7,63.0,46.6,32.0,39.0,25.8,16.0,76,48,17,0.00,40.00,6,2,12,0.00
2013-4-8,43.0,35.3,30.0,35.0,28.2,22.0,100,76,48,0.00,40.00,10,4,24,0.01
2013-4-9,49.0,36.9,28.0,26.0,7.9,-11.0,83,36,11,0.00,40.00,4,2,16,0.01
2013-4-10,60.0,44.3,33.0,10.0,5.0,-4.0,37,22,9,0.00,40.00,8,4,30,0.00
2013-4-11,61.0,44.6,29.0,25.0,18.5,10.0,62,38,20,0.00,40.00,8,3,16,0.00
2013-4-12,65.0,46.3,31.0,36.0,25.0,20.0,75,49,18,0.00,40.00,5,2,17,0.00
2013-4-13,61.0,46.9,32.0,25.0,20.3,10.0,66,39,18,0.00,40.00,9,4,23,0.00
2013-4-14,69.0,50.7,33.0,30.0,21.7,15.0,64,36,16,0.00,40.00,10,3,19,0.00
2013-4-15,56.0,43.6,33.0,35.0,22.1,-5.0,94,50,8,0.00,40.00,5,3,17,0.00
2013-4-16,45.0,35.7,27.0,32.0,18.7,12.0,95,53,27,0.00,40.00,5,3,20,0.00
2013-4-17,46.0,33.4,21.0,24.0,9.3,-6.0,91,44,13,0.00,40.00,4,1,21,0.00
2013-4-18,55.0,38.3,29.0,3.0,-3.2,-15.0,32,19,5,0.00,40.00,5,3,17,0.00
2013-4-19,66.0,45.8,29.0,8.0,2.0,-4.0,37,18,9,0.00,40.00,6,2,14,0.00
2013-4-20,70.0,49.7,31.0,28.0,16.9,9.0,57,31,10,0.00,40.00,6,3,14,0.00
2013-4-21,71.0,50.2,31.0,35.0,20.1,12.0,60,37,11,0.00,40.00,6,2,12,0.00
2013-4-22,72.0,52.7,35.0,33.0,20.2,4.0,53,32,8,0.00,40.00,6,3,18,0.00
2013-4-23,67.0,50.6,37.0,28.0,17.8,8.0,59,32,11,0.00,40.00,4,2,13,0.00
2013-4-24,66.0,50.4,35.0,30.0,21.1,13.0,60,35,13,0.00,40.00,8,2,18,0.00
2013-4-25,65.0,48.1,33.0,28.0,19.3,9.0,71,38,11,0.00,40.00,5,1,14,0.00
2013-4-26,69.0,49.0,30.0,31.0,16.1,9.0,54,32,10,0.00,40.00,4,2,16,0.00
2013-4-27,72.0,51.9,32.0,32.0,13.7,2.0,66,30,7,0.00,40.00,5,2,17,0.00
2013-4-28,74.0,54.3,34.0,37.0,18.5,9.0,49,29,8,0.00,40.00,5,2,15,0.00
2013-4-29,73.0,56.4,35.0,33.0,17.3,9.0,58,26,9,0.00,40.00,8,3,19,0.00
2013-4-30,70.0,58.0,40.0,35.0,25.7,10.0,51,30,17,0.00,40.00,6,3,14,0.00
2013-5-1,66.0,53.0,37.0,29.0,5.7,-15.0,60,21,5,0.00,40.00,5,2,17,0.00
2013-5-2,67.0,49.2,33.0,-6.0,-12.3,-25.0,13,8,2,0.00,40.00,5,1,22,0.00
2013-5-3,71.0,49.9,28.0,13.0,3.0,-12.0,33,16,6,0.00,40.00,6,3,13,0.00
2013-5-4,65.0,48.6,33.0,35.0,15.0,5.0,64,30,10,0.00,40.00,9,3,18,0.00
2013-5-5,49.0,43.4,37.0,37.0,23.4,10.0,92,50,22,0.00,40.00,7,2,15,0.00
2013-5-6,48.0,39.1,32.0,39.0,35.7,30.0,100,88,62,0.00,40.00,9,5,22,0.01
2013-5-7,49.0,38.3,31.0,35.0,31.8,29.0,94,79,50,0.00,40.00,7,2,17,0.01
2013-5-8,57.0,42.4,33.0,41.0,34.7,30.0,98,78,35,0.00,40.00,4,1,12,0.00
2013-5-9,60.0,43.3,30.0,43.0,34.4,25.0,100,78,30,0.00,40.00,3,1,15,0.21
2013-5-10,66.0,51.5,35.0,44.0,30.4,-99.9,100,56,21,0.00,40.00,4,2,17,0.20
2013-5-11,73.0,55.3,35.0,37.0,24.6,-99.9,84,40,13,0.00,40.00,5,2,14,0.00
2013-5-12,76.0,56.1,36.0,38.0,24.0,14.0,71,37,10,0.00,40.00,5,2,15,0.00
2013-5-13,77.0,59.0,39.0,41.0,27.7,19.0,66,36,13,0.00,40.00,7,3,15,0.00
2013-5-14,70.0,55.5,40.0,28.0,24.2,19.0,46,32,16,0.00,40.00,12,5,27,0.00
2013-5-15,73.0,55.7,41.0,39.0,30.4,19.0,58,40,20,0.00,40.00,8,2,16,0.00
2013-5-16,71.0,50.6,35.0,30.0,9.9,-99.9,58,34,12,0.00,40.00,8,3,18,0.00
2013-5-17,61.0,48.7,39.0,38.0,29.6,-99.9,84,52,31,0.00,40.00,7,2,15,0.00
2013-5-18,70.0,51.7,32.0,36.0,28.8,21.0,93,48,18,0.00,40.00,6,2,14,0.00
2013-5-19,75.0,56.9,33.0,28.0,23.0,15.0,55,29,17,0.00,40.00,6,2,13,0.00
2013-5-20,74.0,52.2,33.0,27.0,19.2,10.0,49,29,15,0.00,40.00,6,2,14,0.00
2013-5-21,70.0,54.9,34.0,34.0,24.5,7.0,47,32,21,0.00,40.00,7,4,18,0.00
2013-5-22,67.0,54.3,42.0,35.0,22.7,7.0,49,31,11,0.00,40.00,9,3,22,0.00
2013-5-23,63.0,51.7,37.0,26.0,10.6,-2.0,50,21,8,0.00,40.00,9,4,17,0.00
2013-5-24,67.0,52.8,31.0,37.0,14.7,-9.0,56,24,11,0.00,40.00,7,3,15,0.00
2013-5-25,68.0,55.6,37.0,21.0,9.6,-6.0,29,16,11,0.00,40.00,7,3,13,0.00
2013-5-26,68.0,52.9,37.0,33.0,21.3,0.0,65,31,20,0.00,40.00,6,3,14,0.00
2013-5-27,73.0,56.1,35.0,42.0,29.1,20.0,63,39,15,0.00,40.00,5,2,14,0.00
2013-5-28,69.0,54.5,39.0,37.0,30.4,20.0,60,41,23,0.00,40.00,6,2,19,0.00
2013-5-29,72.0,55.8,35.0,44.0,29.4,14.0,67,40,11,0.00,40.00,8,3,22,0.00
2013-5-30,79.0,59.7,37.0,47.0,29.7,18.0,64,36,13,0.00,40.00,8,3,18,0.00
2013-5-31,79.0,61.7,45.0,29.0,22.1,15.0,41,23,14,0.00,40.00,5,2,13,0.00
2013-6-1,83.0,62.9,42.0,34.0,23.7,18.0,38,25,12,0.00,40.00,4,2,17,0.00
2013-6-2,79.0,62.1,42.0,44.0,28.6,16.0,50,30,17,0.00,40.00,7,2,17,0.00
2013-6-3,75.0,61.0,41.0,35.0,25.4,14.0,44,26,17,0.00,40.00,6,2,15,0.00
2013-6-4,78.0,63.2,38.0,33.0,23.4,10.0,53,24,14,0.00,40.00,6,3,13,0.00
2013-6-5,82.0,63.2,39.0,34.0,21.7,10.0,41,22,11,0.00,40.00,5,2,16,0.00
2013-6-6,84.0,63.4,42.0,39.0,24.2,15.0,37,24,13,0.00,40.00,6,2,14,0.00
2013-6-7,87.0,65.9,44.0,43.0,25.3,15.0,47,24,11,0.00,40.00,5,2,18,0.00
2013-6-8,90.0,67.8,46.0,45.0,27.2,19.0,43,24,10,0.00,40.00,8,2,16,0.00
2013-6-9,81.0,66.5,47.0,32.0,21.9,7.0,28,19,12,0.00,40.00,9,4,19,0.00
2013-6-10,67.0,58.0,45.0,31.0,23.3,7.0,41,26,19,0.00,40.00,16,7,31,0.00
2013-6-11,79.0,63.8,42.0,40.0,27.8,15.0,47,27,18,0.00,40.00,6,3,14,0.00
2013-6-12,79.0,62.0,45.0,39.0,26.7,13.0,41,27,15,0.00,40.00,9,3,19,0.00
2013-6-13,78.0,58.8,41.0,35.0,21.7,4.0,38,26,12,0.00,40.00,7,4,13,0.00
2013-6-14,78.0,59.3,35.0,26.0,12.9,2.0,35,17,8,0.00,40.00,6,3,13,0.00
2013-6-15,76.0,65.2,39.0,26.0,15.2,-5.0,27,15,8,0.00,40.00,7,4,15,0.00
2013-6-16,78.0,61.6,32.0,29.0,14.3,-4.0,30,17,7,0.00,40.00,6,3,13,0.00
2013-6-17,79.0,58.8,35.0,37.0,20.9,6.0,41,26,8,0.00,40.00,7,3,14,0.00
2013-6-18,78.0,59.2,41.0,31.0,22.3,13.0,41,26,13,0.00,40.00,6,3,12,0.00
2013-6-19,75.0,59.6,41.0,37.0,19.9,7.0,49,24,8,0.00,40.00,7,3,13,0.00
2013-6-20,76.0,58.7,36.0,29.0,14.7,3.0,37,19,11,0.00,40.00,5,3,13,0.00
2013-6-22,78.0,68.0,47.0,41.0,33.3,26.0,45,29,18,0.00,40.00,6,3,16,0.00
2013-6-23,72.0,57.6,41.0,34.0,29.7,24.0,56,37,20,0.00,40.00,5,2,16,0.00
2013-6-24,67.0,57.1,47.0,45.0,37.1,28.0,72,48,32,0.00,40.00,8,3,18,0.00
2013-6-25,80.0,62.1,45.0,49.0,41.1,36.0,72,50,27,0.00,40.00,6,2,16,0.00
2013-6-26,82.0,66.5,52.0,47.0,42.0,37.0,66,44,25,0.00,40.00,6,3,14,0.00
2013-6-27,83.0,68.1,49.0,48.0,41.0,26.0,60,39,25,0.00,40.00,5,3,17,0.00
2013-6-28,88.0,71.5,49.0,48.0,34.7,17.0,50,28,17,0.00,40.00,6,2,13,0.00
2013-6-29,92.0,73.9,52.0,43.0,33.2,22.0,39,24,12,0.00,40.00,5,2,13,0.00
2013-6-30,89.0,74.2,52.0,47.0,34.6,22.0,37,24,17,0.00,40.00,5,2,12,0.00
2013-7-1,88.0,69.6,56.0,51.0,40.1,29.0,45,35,19,0.00,40.00,4,1,12,0.00
2013-7-2,85.0,68.6,53.0,50.0,40.6,34.0,54,38,23,0.00,40.00,6,2,12,0.00
2013-7-3,88.0,71.2,55.0,48.0,41.8,35.0,53,37,21,0.00,40.00,6,2,17,0.00
2013-7-4,87.0,70.8,53.0,50.0,41.1,34.0,51,36,24,0.00,40.00,6,2,15,0.00
2013-7-5,84.0,69.3,52.0,49.0,37.9,29.0,49,34,18,0.00,40.00,6,2,12,0.00
2013-7-6,83.0,64.4,53.0,47.0,35.2,20.0,53,36,19,0.00,40.00,5,1,11,0.00
2013-7-7,84.0,70.2,50.0,44.0,32.1,17.0,44,25,19,0.00,40.00,8,3,18,0.00
2013-7-8,83.0,61.5,46.0,39.0,26.5,-99.9,55,30,13,0.00,40.00,8,3,16,0.00
2013-7-9,84.0,67.6,49.0,42.0,30.9,20.0,38,26,16,0.00,40.00,5,2,13,0.00
2013-7-10,86.0,72.1,61.0,41.0,34.4,-99.9,37,26,18,0.00,40.00,3,0,14,0.00
2013-7-11,70.0,63.7,57.0,49.0,41.2,33.0,65,44,35,0.00,40.00,3,0,10,0.00
2013-7-12,74.0,61.6,52.0,49.0,43.0,34.0,67,52,36,0.00,40.00,5,1,12,0.00
2013-7-13,80.0,61.9,47.0,47.0,39.0,31.0,70,45,24,0.00,40.00,4,1,13,0.00
2013-7-14,77.0,64.7,52.0,49.0,40.1,31.0,49,41,30,0.00,40.00,5,2,10,0.00
2013-7-15,81.0,65.1,49.0,48.0,40.5,33.0,62,43,28,0.00,40.00,7,3,16,0.00
2013-7-16,80.0,70.3,51.0,39.0,32.7,26.0,38,26,14,0.00,40.00,9,4,15,0.00
2013-7-17,81.0,56.0,40.0,29.0,16.5,7.0,45,23,8,0.00,40.00,6,2,12,0.00
2013-7-18,86.0,67.9,46.0,33.0,25.6,15.0,44,22,13,0.00,40.00,5,2,12,0.00
2013-7-19,83.0,66.8,52.0,47.0,32.0,19.0,38,28,19,0.00,40.00,5,2,11,0.00
2013-7-20,84.0,68.5,57.0,59.0,45.0,28.0,87,45,29,0.00,40.00,3,1,14,0.09
2013-7-21,69.0,61.5,54.0,62.0,55.5,51.0,99,82,55,0.00,40.00,6,1,18,0.23
2013-7-22,72.0,60.5,50.0,62.0,55.9,47.0,99,86,54,0.00,40.00,4,0,11,0.86
2013-7-23,74.0,65.1,52.0,57.0,52.6,46.0,93,66,51,0.00,40.00,3,1,13,0.01
2013-7-24,78.0,64.3,50.0,57.0,50.6,44.0,99,66,40,0.00,40.00,6,2,11,0.00
2013-7-25,81.0,65.7,49.0,52.0,46.0,42.0,84,53,29,0.00,40.00,5,2,13,0.00
2013-7-26,74.0,60.9,55.0,62.0,52.0,40.0,99,74,48,0.00,40.00,2,0,7,0.12
2013-7-27,77.0,63.3,53.0,62.0,51.3,43.0,99,69,35,0.00,40.00,4,1,12,0.01
2013-7-28,79.0,62.9,48.0,50.0,42.5,28.0,80,51,27,0.00,40.00,6,2,13,0.00
2013-7-29,79.0,61.2,43.0,37.0,30.7,24.0,66,36,13,0.00,40.00,6,2,12,0.00
2013-7-30,82.0,64.8,48.0,46.0,39.9,33.0,71,43,24,0.00,40.00,6,2,14,0.00
2013-7-31,81.0,63.9,46.0,39.0,33.2,13.0,65,37,17,0.00,40.00,6,3,15,0.00
2013-8-1,79.0,62.0,46.0,25.0,17.5,9.0,31,20,8,0.00,40.00,7,3,16,0.00
2013-8-2,78.0,62.3,46.0,32.0,21.0,11.0,29,21,11,0.00,40.00,7,4,17,0.00
2013-8-3,80.0,68.9,44.0,30.0,20.7,8.0,28,17,9,0.00,40.00,5,2,14,0.00
2013-8-4,81.0,65.6,48.0,35.0,22.8,12.0,33,21,8,0.00,40.00,6,2,13,0.00
2013-8-5,81.0,66.3,48.0,26.0,20.4,10.0,29,18,10,0.00,40.00,5,3,14,0.00
2013-8-6,79.0,63.2,47.0,31.0,22.5,13.0,30,22,9,0.00,40.00,6,3,14,0.00
2013-8-7,75.0,61.2,47.0,32.0,22.1,14.0,33,23,12,0.00,40.00,7,3,18,0.00
2013-8-8,72.0,60.9,47.0,33.0,27.0,19.0,37,28,20,0.00,40.00,9,4,17,0.00
2013-8-9,75.0,60.6,41.0,34.0,24.8,10.0,40,26,17,0.00,40.00,6,3,18,0.00
2013-8-10,75.0,58.6,39.0,34.0,22.9,10.0,45,26,14,0.00,40.00,6,3,13,0.00
2013-8-11,77.0,56.7,38.0,35.0,25.6,19.0,53,32,17,0.00,40.00,6,2,13,0.00
2013-8-12,80.0,59.7,41.0,38.0,28.0,21.0,58,33,17,0.00,40.00,6,2,14,0.00
2013-8-13,83.0,60.8,40.0,36.0,26.9,20.0,46,31,13,0.00,40.00,4,2,19,0.00
2013-8-14,85.0,63.7,43.0,35.0,23.9,-99.9,41,27,11,0.00,40.00,5,2,13,0.00
2013-8-15,83.0,58.5,48.0,45.0,20.6,-99.9,49,32,24,0.00,40.00,5,2,16,0.00
2013-8-16,84.0,66.2,50.0,53.0,41.1,-99.9,69,43,28,0.00,40.00,6,2,15,0.00
2013-8-17,85.0,67.3,50.0,47.0,39.4,-99.9,59,39,26,0.00,40.00,8,3,22,0.00
2013-8-18,82.0,67.2,56.0,54.0,45.9,38.0,79,49,29,0.00,40.00,7,2,15,0.18
2013-8-19,81.0,63.8,53.0,56.0,40.4,-99.9,89,55,31,0.00,40.00,4,1,15,0.01
2013-8-20,82.0,63.8,51.0,47.0,37.4,-99.9,80,47,17,0.00,40.00,5,2,13,0.00
2013-8-21,83.0,67.3,50.0,45.0,38.4,33.0,56,36,22,0.00,40.00,6,3,17,0.00
2013-8-22,82.0,66.6,51.0,46.0,39.2,34.0,57,38,27,0.00,40.00,8,3,15,0.00
2013-8-23,79.0,63.7,46.0,48.0,37.0,29.0,66,40,22,0.00,40.00,7,3,17,0.00
2013-8-24,77.0,62.0,48.0,42.0,30.9,-99.9,60,34,18,0.00,40.00,11,4,28,0.00
2013-8-25,77.0,60.7,45.0,47.0,40.7,31.0,74,50,30,0.00,40.00,8,3,18,0.00
2013-8-26,64.0,57.7,51.0,58.0,49.4,42.0,92,75,54,0.00,40.00,2,0,7,0.06
2013-8-27,73.0,56.1,47.0,55.0,50.1,47.0,99,84,49,0.00,40.00,4,1,9,0.04
2013-8-28,81.0,71.4,58.0,52.0,49.9,45.0,66,48,36,0.00,40.00,7,3,15,0.00
2013-8-29,77.0,60.6,50.0,59.0,51.7,43.0,99,74,45,0.00,40.00,3,0,13,0.78
2013-8-30,70.0,59.6,52.0,63.0,57.0,50.0,99,92,61,0.00,40.00,2,0,7,0.13
2013-8-31,74.0,62.1,56.0,59.0,54.4,-99.9,99,80,52,0.00,40.00,4,1,12,0.01
2013-9-1,79.0,63.7,51.0,55.0,48.6,44.0,99,63,31,0.00,40.00,7,2,12,0.00
2013-9-2,77.0,61.6,49.0,59.0,50.1,45.0,94,70,33,0.00,40.00,6,2,13,0.09
2013-9-3,79.0,63.3,50.0,54.0,50.8,47.0,91,68,38,0.00,40.00,7,2,15,0.09
2013-9-4,75.0,60.6,50.0,58.0,51.2,47.0,92,74,42,0.00,40.00,5,1,12,0.14
2013-9-5,79.0,60.9,50.0,58.0,50.8,46.0,99,74,34,0.00,40.00,6,1,16,0.04
2013-9-6,79.0,62.7,51.0,54.0,48.2,44.0,94,65,34,0.00,40.00,6,2,13,0.01
2013-9-7,75.0,58.0,50.0,57.0,48.8,-99.9,94,76,40,0.00,40.00,4,1,11,0.17
2013-9-8,78.0,60.2,43.0,52.0,43.2,35.0,91,60,22,0.00,40.00,9,1,15,0.06
2013-9-9,75.0,58.2,47.0,55.0,46.8,43.0,99,71,32,0.00,40.00,9,1,19,0.31
2013-9-10,71.0,57.7,48.0,46.0,42.0,39.0,90,59,35,0.00,40.00,6,2,12,0.01
2013-9-11,72.0,56.6,42.0,40.0,36.7,33.0,84,52,27,0.00,40.00,6,2,13,0.00
2013-9-12,75.0,57.9,43.0,45.0,35.1,30.0,76,48,20,0.00,40.00,6,2,14,0.00
2013-9-13,79.0,59.7,42.0,41.0,34.4,29.0,67,43,20,0.00,40.00,7,2,13,0.00
2013-9-14,81.0,58.7,44.0,46.0,35.7,-99.9,74,48,25,0.00,40.00,5,1,11,0.00
2013-9-15,82.0,61.0,44.0,42.0,38.1,34.0,70,47,22,0.00,40.00,6,2,14,0.00
2013-9-16,79.0,62.0,43.0,46.0,36.9,33.0,72,43,24,0.00,40.00,6,2,13,0.00
2013-9-17,77.0,61.6,46.0,37.0,26.9,18.0,54,31,11,0.00,40.00,6,3,18,0.00
2013-9-18,52.0,48.6,46.0,24.0,15.1,6.0,37,26,19,0.00,40.00,3,1,6,0.00
2013-9-19,77.0,56.6,40.0,30.0,23.3,19.0,44,30,16,0.00,40.00,4,2,13,0.00
2013-9-20,77.0,56.8,39.0,35.0,28.8,23.0,56,38,17,0.00,40.00,6,2,15,0.00
2013-9-21,69.0,51.8,39.0,38.0,19.5,-99.9,71,33,11,0.00,40.00,9,4,22,0.00
2013-9-22,67.0,48.2,33.0,34.0,21.5,13.0,85,40,14,0.00,40.00,6,2,13,0.00
2013-9-23,75.0,55.3,37.0,31.0,22.2,13.0,42,28,18,0.00,40.00,4,1,13,0.00
2013-9-24,73.0,52.8,35.0,34.0,26.2,19.0,60,38,20,0.00,40.00,6,2,13,0.00
2013-9-25,64.0,53.1,45.0,38.0,25.9,6.0,68,37,18,0.00,40.00,10,4,22,0.00
2013-9-26,53.0,42.1,29.0,33.0,18.8,4.0,76,42,17,0.00,40.00,7,2,17,0.00
2013-9-27,60.0,40.0,27.0,19.0,14.9,7.0,63,39,14,0.00,40.00,5,2,17,0.00
2013-9-28,70.0,46.5,28.0,25.0,13.6,-99.9,54,30,15,0.00,40.00,5,2,13,0.00
2013-9-29,75.0,49.6,32.0,24.0,15.8,10.0,43,29,13,0.00,40.00,6,2,12,0.00
2013-9-30,78.0,55.2,35.0,28.0,16.6,11.0,38,26,8,0.00,40.00,4,2,18,0.00
2013-10-1,71.0,55.0,47.0,35.0,31.0,29.0,51,41,27,0.00,40.00,4,1,11,0.00
2013-10-2,70.0,56.5,42.0,33.0,26.4,11.0,49,33,21,0.00,40.00,6,3,15,0.00
2013-10-3,71.0,52.2,37.0,28.0,16.5,4.0,43,27,10,0.00,40.00,6,1,15,0.00
2013-10-4,58.0,42.1,35.0,17.0,9.5,4.0,37,27,14,0.00,40.00,3,1,16,0.00
2013-10-5,61.0,43.7,36.0,13.0,10.2,4.0,35,26,11,0.00,40.00,4,1,16,0.00
2013-10-6,72.0,49.5,32.0,16.0,7.1,-2.0,28,19,7,0.00,40.00,4,2,9,0.00
2013-10-7,68.0,46.7,32.0,18.0,7.0,-8.0,38,21,12,0.00,40.00,5,2,12,0.00
2013-10-8,66.0,48.0,34.0,32.0,19.3,9.0,72,35,16,0.00,40.00,6,3,14,0.00
2013-10-9,40.0,33.8,28.0,33.0,29.4,19.0,97,85,46,0.00,40.00,14,3,24,0.00
2013-10-10,52.0,35.3,21.0,36.0,28.8,19.0,96,79,47,0.00,40.00,5,1,12,0.45
2013-10-11,59.0,38.7,27.0,35.0,28.4,25.0,97,72,29,0.00,40.00,5,1,11,0.01
2013-10-12,62.0,41.1,27.0,34.0,26.5,-99.9,96,65,28,0.00,40.00,5,2,12,0.01
2013-10-13,60.0,43.2,31.0,31.0,24.0,17.0,87,52,20,0.00,40.00,6,2,13,0.00
2013-10-14,59.0,36.9,28.0,26.0,21.0,12.0,77,55,27,0.00,40.00,4,1,12,0.00
2013-10-15,60.0,39.2,24.0,23.0,16.5,10.0,74,43,24,0.00,40.00,5,2,13,0.00
2013-10-16,62.0,38.4,28.0,19.0,14.3,8.0,55,39,15,0.00,40.00,5,1,10,0.00
2013-10-17,67.0,41.8,25.0,21.0,12.2,5.0,51,33,12,0.00,40.00,5,1,12,0.00
2013-10-18,62.0,38.2,30.0,19.0,12.3,4.0,49,36,18,0.00,40.00,4,1,10,0.00
2013-10-19,70.0,40.9,27.0,20.0,6.2,-99.9,37,27,10,0.00,40.00,5,2,12,0.00
2013-10-20,70.0,43.0,29.0,23.0,10.3,4.0,37,29,8,0.00,40.00,7,2,12,0.00
2013-10-21,69.0,36.9,29.0,15.0,9.2,5.0,44,33,12,0.00,40.00,5,2,11,0.00
2013-10-22,69.0,43.1,29.0,27.0,14.0,8.0,43,33,15,0.00,40.00,5,1,11,0.00
2013-10-23,58.0,38.0,30.0,25.0,15.2,11.0,57,40,21,0.00,40.00,3,1,9,0.00
2013-10-24,66.0,43.2,29.0,26.0,14.9,9.0,57,35,15,0.00,40.00,6,2,15,0.00
2013-10-25,69.0,40.5,30.0,30.0,14.1,10.0,55,36,15,0.00,40.00,4,1,11,0.00
2013-10-26,69.0,44.8,31.0,29.0,16.5,-99.9,51,35,18,0.00,40.00,3,1,12,0.00
2013-10-27,64.0,45.7,30.0,31.0,21.8,15.0,57,41,21,0.00,40.00,9,4,23,0.00
2013-10-28,41.0,35.3,31.0,36.0,29.4,-99.9,97,84,61,0.00,40.00,13,8,38,0.05
2013-10-29,41.0,33.4,29.0,32.0,28.0,25.0,98,81,60,0.00,40.00,7,2,16,0.14
2013-10-30,55.0,35.0,26.0,28.0,22.0,9.0,94,64,23,0.00,40.00,4,1,11,0.07
2013-10-31,62.0,33.3,24.0,20.0,13.2,9.0,70,46,16,0.00,40.00,3,0,11,0.00
2013-11-1,56.0,34.9,29.0,25.0,18.3,6.0,66,52,24,0.00,40.00,5,1,6,0.00
2013-11-2,64.0,39.5,25.0,23.0,12.0,-99.9,59,36,17,0.00,40.00,6,2,13,0.00
2013-11-3,64.0,41.8,27.0,24.0,16.9,6.0,65,40,16,0.00,40.00,8,2,12,0.00
2013-11-4,53.0,36.3,28.0,33.0,16.0,7.0,63,44,33,0.00,40.00,6,1,12,0.00
2013-11-5,43.0,30.7,25.0,17.0,4.1,-14.0,66,37,12,0.00,40.00,3,1,12,0.00
2013-11-6,58.0,33.3,23.0,10.0,0.4,-10.0,39,26,11,0.00,40.00,3,0,9,0.00
2013-11-7,67.0,43.1,28.0,25.0,14.5,10.0,48,34,17,0.00,40.00,4,1,10,0.00
2013-11-8,67.0,43.0,28.0,20.0,10.0,3.0,43,29,12,0.00,40.00,5,1,12,0.00
2013-11-9,66.0,41.0,27.0,15.0,5.9,-99.9,37,26,10,0.00,40.00,5,1,9,0.00
2013-11-10,64.0,38.5,31.0,19.0,8.8,6.0,36,31,12,0.00,40.00,4,1,8,0.00
2013-11-11,68.0,36.8,29.0,20.0,6.5,1.0,35,29,11,0.00,40.00,4,1,10,0.00
2013-11-12,66.0,46.6,32.0,26.0,13.9,6.0,37,28,15,0.00,40.00,2,0,6,0.00
2013-11-13,68.0,41.6,30.0,24.0,15.0,11.0,46,36,16,0.00,40.00,5,1,12,0.00
2013-11-14,66.0,45.0,29.0,27.0,17.4,11.0,50,35,17,0.00,40.00,6,2,14,0.00
2013-11-15,56.0,42.1,23.0,34.0,22.9,10.0,73,49,28,0.00,40.00,7,2,18,0.00
2013-11-16,54.0,34.5,20.0,34.0,24.0,-99.9,96,71,45,0.00,40.00,5,1,12,0.00
2013-11-17,58.0,32.0,24.0,34.0,24.6,20.0,90,76,32,0.00,40.00,3,1,8,0.00
2013-11-18,60.0,37.9,23.0,33.0,22.2,14.0,84,57,27,0.00,40.00,5,1,11,0.00
2013-11-19,62.0,46.8,33.0,25.0,17.6,10.0,47,33,16,0.00,40.00,6,2,15,0.00
2013-11-20,56.0,43.8,34.0,38.0,31.6,21.0,98,65,43,0.00,40.00,6,2,16,0.00
2013-11-21,41.0,36.9,32.0,39.0,35.2,31.0,99,93,79,0.00,40.00,7,2,16,0.16
2013-11-22,34.0,30.9,27.0,33.0,28.9,26.0,99,92,75,0.00,40.00,1,0,9,0.08
2013-11-23,37.0,29.7,27.0,32.0,26.3,-99.9,98,91,76,0.00,40.00,1,0,10,0.20
2013-11-24,44.0,29.3,26.0,31.0,26.8,25.0,99,92,51,0.00,40.00,3,1,9,0.07
2013-11-25,54.0,37.8,27.0,28.0,21.0,13.0,95,57,24,0.00,40.00,3,1,11,0.02
2013-11-26,55.0,36.8,28.0,30.0,20.7,15.0,70,54,27,0.00,40.00,4,0,8,0.00
2013-11-27,55.0,36.4,26.0,29.0,23.7,20.0,89,63,28,0.00,40.00,5,1,9,0.00
2013-11-28,50.0,33.1,24.0,28.0,22.9,20.0,90,69,32,0.00,40.00,4,1,11,0.00
2013-11-29,47.0,34.5,24.0,35.0,28.1,20.0,99,80,44,0.00,40.00,5,1,11,0.03
2013-11-30,49.0,32.3,24.0,36.0,24.3,-99.9,99,79,40,0.00,40.00,3,0,8,0.01
2013-12-1,58.0,35.3,26.0,27.0,17.0,8.0,96,56,14,0.00,40.00,5,1,10,0.00
2013-12-2,64.0,41.2,27.0,26.0,14.9,9.0,59,37,17,0.00,40.00,6,1,13,0.00
2013-12-3,53.0,42.7,34.0,38.0,24.7,11.0,99,55,30,0.00,40.00,13,6,37,0.03
2013-12-4,40.0,28.6,20.0,35.0,19.3,5.0,99,72,24,0.00,40.00,13,3,31,0.08
2013-12-5,34.0,25.0,16.0,20.0,16.6,12.0,89,72,42,0.00,40.00,7,2,15,0.00
2013-12-6,38.0,25.3,14.0,24.0,17.9,11.0,95,76,42,0.00,40.00,5,2,17,0.00
2013-12-7,33.0,25.5,21.0,29.0,21.9,-99.9,97,90,71,0.00,40.00,10,4,27,0.00
2013-12-8,42.0,20.7,9.0,22.0,7.6,-4.0,97,63,19,0.00,40.00,3,1,17,0.05
2013-12-9,35.0,18.2,6.0,-2.0,-11.4,-24.0,62,31,9,0.00,40.00,5,1,14,0.05
2013-12-10,48.0,23.1,11.0,6.0,-0.7,-8.0,56,39,13,0.00,40.00,3,1,11,0.00
2013-12-11,49.0,22.6,12.0,14.0,3.8,-1.0,61,47,17,0.00,40.00,3,0,7,0.00
2013-12-12,44.0,29.7,22.0,31.0,15.8,4.0,89,58,26,0.00,40.00,2,0,9,0.00
2013-12-13,51.0,32.1,22.0,14.0,9.3,3.0,68,43,15,0.00,40.00,4,1,14,0.00
2013-12-14,51.0,31.9,25.0,12.0,4.7,-99.9,53,34,16,0.00,40.00,4,1,11,0.00
2013-12-15,63.0,42.9,32.0,16.0,9.9,1.0,43,27,14,0.00,40.00,4,1,12,0.00
2013-12-16,65.0,39.7,31.0,23.0,15.8,10.0,54,40,18,0.00,40.00,3,0,12,0.00
2013-12-17,70.0,44.0,31.0,22.0,17.4,15.0,54,39,13,0.00,40.00,4,1,9,0.00
2013-12-18,62.0,45.8,35.0,23.0,18.3,13.0,47,35,19,0.00,40.00,5,1,12,0.00
2013-12-19,38.0,31.8,28.0,29.0,24.2,11.0,97,76,39,0.00,40.00,5,2,14,0.00
2013-12-20,36.0,26.9,19.0,28.0,16.9,-2.0,95,70,27,0.00,40.00,4,1,15,0.24
2013-12-21,51.0,33.6,25.0,26.0,16.8,-99.9,83,54,29,0.00,40.00,7,1,19,0.08
2013-12-22,51.0,30.4,21.0,24.0,18.4,14.0,86,65,27,0.00,40.00,4,1,7,0.07
2013-12-23,57.0,35.2,28.0,25.0,20.1,16.0,75,57,23,0.00,40.00,4,1,11,0.00
2013-12-24,54.0,31.8,25.0,27.0,19.9,17.0,79,64,28,0.00,40.00,2,0,8,0.00
2013-12-25,50.0,31.6,24.0,18.0,9.3,-1.0,72,43,16,0.00,40.00,2,0,8,0.00
2013-12-26,54.0,37.6,26.0,6.0,-0.2,-8.0,36,22,10,0.00,40.00,5,2,18,0.00
2013-12-27,56.0,32.8,25.0,13.0,4.4,-3.0,49,31,13,0.00,40.00,4,1,9,0.00
2013-12-28,59.0,39.0,30.0,15.0,6.0,-99.9,51,30,9,0.00,40.00,6,2,20,0.00
2013-12-29,48.0,35.0,25.0,9.0,-2.7,-15.0,44,23,8,0.00,40.00,9,4,25,0.00
2013-12-30,63.0,36.8,22.0,9.0,-1.2,-7.0,35,23,7,0.00,40.00,6,2,12,0.00
2013-12-31,64.0,40.0,27.0,16.0,7.9,3.0,42,29,13,0.00,40.00,5,2,12,0.00
2014-1-1,58.0,31.7,26.0,19.0,11.2,8.0,53,43,22,0.00,40.00,3,1,6,0.00
2014-1-2,63.0,36.8,23.0,26.0,16.0,13.0,65,46,18,0.00,40.00,4,1,9,0.00